createdAt,value
2017-06-28T00:00:08.483Z,15.60
2017-06-28T00:02:35.922Z,15.70
2017-06-28T00:05:03.620Z,15.60
2017-06-28T00:07:31.056Z,15.30
2017-06-28T00:09:58.486Z,15.40
2017-06-28T00:12:25.950Z,15.30
2017-06-28T00:14:53.383Z,15.40
2017-06-28T00:17:20.825Z,15.60
2017-06-28T00:19:48.683Z,15.30
2017-06-28T00:22:16.518Z,15.00
2017-06-28T00:24:43.955Z,15.00
2017-06-28T00:27:11.431Z,15.00
2017-06-28T00:29:38.896Z,15.00
2017-06-28T00:32:06.331Z,14.90
2017-06-28T00:34:33.995Z,14.90
2017-06-28T00:37:01.440Z,14.90
2017-06-28T00:39:28.874Z,14.90
2017-06-28T00:41:56.567Z,15.00
2017-06-28T00:44:24.014Z,14.80
2017-06-28T00:46:51.451Z,14.90
2017-06-28T00:49:19.139Z,14.80
2017-06-28T00:51:46.575Z,14.90
2017-06-28T00:54:14.021Z,14.80
2017-06-28T00:56:41.477Z,14.80
2017-06-28T00:59:08.908Z,14.90
2017-06-28T01:01:36.345Z,14.70
2017-06-28T01:04:04.209Z,14.80
2017-06-28T01:06:31.694Z,14.80
2017-06-28T01:08:59.127Z,14.70
2017-06-28T01:11:26.986Z,14.90
2017-06-28T01:13:54.815Z,14.70
2017-06-28T01:16:22.251Z,14.70
2017-06-28T01:18:50.036Z,14.80
2017-06-28T01:21:17.471Z,14.80
2017-06-28T01:23:44.920Z,14.90
2017-06-28T01:26:12.604Z,14.90
2017-06-28T01:28:40.040Z,14.70
2017-06-28T01:31:07.480Z,14.70
2017-06-28T01:33:34.950Z,14.80
2017-06-28T01:36:02.391Z,14.80
2017-06-28T01:38:29.836Z,14.80
2017-06-28T01:40:57.542Z,14.70
2017-06-28T01:43:24.984Z,14.70
2017-06-28T01:45:52.426Z,14.90
2017-06-28T01:48:19.895Z,15.00
2017-06-28T01:50:47.336Z,15.10
2017-06-28T01:53:14.773Z,14.80
2017-06-28T01:55:42.228Z,14.90
2017-06-28T01:58:09.682Z,14.90
2017-06-28T02:00:37.117Z,14.90
2017-06-28T02:03:05.247Z,14.70
2017-06-28T02:05:32.692Z,14.70
2017-06-28T02:08:00.171Z,14.90
2017-06-28T02:10:27.957Z,14.80
2017-06-28T02:12:55.433Z,14.80
2017-06-28T02:15:22.905Z,14.80
2017-06-28T02:17:50.838Z,14.70
2017-06-28T02:20:18.479Z,14.90
2017-06-28T02:22:45.932Z,14.90
2017-06-28T02:25:13.447Z,14.80
2017-06-28T02:27:40.905Z,14.60
2017-06-28T02:30:08.368Z,14.60
2017-06-28T02:32:35.871Z,14.70
2017-06-28T02:35:03.355Z,14.60
2017-06-28T02:37:30.834Z,14.60
2017-06-28T02:39:58.350Z,14.60
2017-06-28T02:42:26.219Z,14.70
2017-06-28T02:44:54.079Z,14.70
2017-06-28T02:47:22.159Z,14.80
2017-06-28T02:49:50.031Z,14.80
2017-06-28T02:52:17.531Z,14.80
2017-06-28T02:54:45.047Z,14.80
2017-06-28T02:57:12.505Z,14.90
2017-06-28T02:59:39.968Z,14.90
2017-06-28T03:02:08.332Z,14.90
2017-06-28T03:04:35.797Z,14.90
2017-06-28T03:07:15.548Z,14.80
2017-06-28T03:09:43.011Z,14.90
2017-06-28T03:12:10.484Z,14.80
2017-06-28T03:14:38.441Z,14.80
2017-06-28T03:19:40.053Z,15.00
2017-06-28T03:22:07.921Z,14.80
2017-06-28T03:24:35.781Z,14.90
2017-06-28T03:27:03.958Z,15.00
2017-06-28T03:29:31.817Z,15.00
2017-06-28T03:31:59.313Z,15.00
2017-06-28T03:34:26.890Z,15.10
2017-06-28T03:36:54.357Z,15.10
2017-06-28T03:39:21.840Z,15.10
2017-06-28T03:41:50.326Z,15.10
2017-06-28T03:44:17.813Z,15.10
2017-06-28T03:46:45.299Z,15.00
2017-06-28T03:49:12.792Z,15.00
2017-06-28T03:51:40.657Z,15.00
2017-06-28T03:54:08.513Z,15.10
2017-06-28T03:56:36.277Z,15.10
2017-06-28T03:59:04.140Z,15.00
2017-06-28T04:01:32.018Z,15.30
2017-06-28T04:04:00.087Z,15.20
2017-06-28T04:06:27.951Z,15.30
2017-06-28T04:08:55.436Z,15.30
2017-06-28T04:11:22.937Z,15.20
2017-06-28T04:13:50.413Z,15.40
2017-06-28T04:16:18.280Z,15.20
2017-06-28T04:18:46.172Z,15.30
2017-06-28T04:21:13.637Z,15.30
2017-06-28T04:23:41.099Z,15.30
2017-06-28T04:26:08.809Z,15.40
2017-06-28T04:28:36.684Z,15.30
2017-06-28T04:31:04.173Z,15.30
2017-06-28T04:33:31.674Z,15.30
2017-06-28T04:35:59.561Z,15.50
2017-06-28T04:38:27.431Z,15.60
2017-06-28T04:40:55.397Z,15.60
2017-06-28T04:43:22.857Z,15.60
2017-06-28T04:45:50.725Z,15.90
2017-06-28T04:48:18.570Z,15.90
2017-06-28T04:50:46.036Z,16.00
2017-06-28T04:53:13.513Z,15.70
2017-06-28T04:55:41.028Z,15.90
2017-06-28T04:58:08.906Z,16.10
2017-06-28T05:00:36.782Z,16.00
2017-06-28T05:03:04.301Z,16.10
2017-06-28T05:05:31.776Z,15.90
2017-06-28T05:07:59.249Z,16.10
2017-06-28T05:10:28.504Z,16.10
2017-06-28T05:12:56.418Z,16.20
2017-06-28T05:15:23.890Z,16.20
2017-06-28T05:17:52.131Z,16.20
2017-06-28T05:20:19.885Z,16.30
2017-06-28T05:22:47.365Z,16.20
2017-06-28T05:25:15.101Z,16.30
2017-06-28T05:27:42.560Z,16.00
2017-06-28T05:30:10.430Z,16.00
2017-06-28T05:32:38.196Z,16.00
2017-06-28T05:35:05.705Z,16.00
2017-06-28T05:37:33.176Z,16.10
2017-06-28T05:40:00.698Z,16.20
2017-06-28T05:42:28.174Z,16.40
2017-06-28T05:44:55.641Z,16.50
2017-06-28T05:47:23.221Z,16.20
2017-06-28T05:49:51.096Z,16.40
2017-06-28T05:52:18.961Z,16.50
2017-06-28T05:54:47.043Z,16.60
2017-06-28T05:57:14.909Z,16.50
2017-06-28T05:59:42.383Z,16.50
2017-06-28T06:02:10.169Z,16.80
2017-06-28T06:04:37.680Z,16.90
2017-06-28T06:07:05.597Z,17.10
2017-06-28T06:09:33.138Z,17.10
2017-06-28T06:12:00.626Z,17.50
2017-06-28T06:17:02.061Z,17.30
2017-06-28T06:19:29.558Z,17.20
2017-06-28T06:21:57.079Z,17.20
2017-06-28T06:24:24.598Z,17.30
2017-06-28T06:26:52.455Z,17.50
2017-06-28T06:29:19.921Z,17.50
2017-06-28T06:31:47.428Z,17.60
2017-06-28T06:34:14.937Z,17.60
2017-06-28T06:36:42.409Z,17.60
2017-06-28T06:39:09.909Z,17.70
2017-06-28T06:41:37.638Z,17.70
2017-06-28T06:44:05.579Z,17.80
2017-06-28T06:46:33.044Z,17.80
2017-06-28T06:49:00.608Z,18.00
2017-06-28T06:51:28.068Z,18.00
2017-06-28T06:53:55.758Z,18.00
2017-06-28T06:56:23.401Z,18.00
2017-06-28T06:58:51.038Z,17.90
2017-06-28T07:01:18.496Z,18.00
2017-06-28T07:03:45.997Z,18.10
2017-06-28T07:06:13.456Z,18.30
2017-06-28T07:08:40.920Z,18.40
2017-06-28T07:11:08.804Z,18.50
2017-06-28T07:13:36.279Z,18.50
2017-06-28T07:16:03.744Z,18.60
2017-06-28T07:18:31.536Z,19.00
2017-06-28T07:20:59.070Z,18.90
2017-06-28T07:23:26.564Z,19.10
2017-06-28T07:25:54.345Z,19.20
2017-06-28T07:28:21.835Z,19.20
2017-06-28T07:30:49.302Z,19.20
2017-06-28T07:33:17.037Z,19.10
2017-06-28T07:35:44.513Z,19.20
2017-06-28T07:38:11.977Z,19.30
2017-06-28T07:40:39.789Z,19.30
2017-06-28T07:43:07.249Z,19.20
2017-06-28T07:45:35.113Z,19.60
2017-06-28T07:48:02.988Z,19.90
2017-06-28T07:50:30.464Z,19.90
2017-06-28T07:52:57.938Z,20.00
2017-06-28T07:55:25.632Z,19.80
2017-06-28T07:57:53.092Z,19.80
2017-06-28T08:00:20.621Z,20.00
2017-06-28T08:02:48.658Z,20.10
2017-06-28T08:05:16.142Z,20.10
2017-06-28T08:07:43.626Z,20.10
2017-06-28T08:10:11.501Z,20.10
2017-06-28T08:12:38.971Z,20.10
2017-06-28T08:15:06.443Z,20.20
2017-06-28T08:17:33.941Z,20.30
2017-06-28T08:20:01.409Z,20.60
2017-06-28T08:22:28.873Z,20.50
2017-06-28T08:24:56.509Z,20.80
2017-06-28T08:27:24.022Z,20.90
2017-06-28T08:29:51.505Z,21.20
2017-06-28T08:32:19.017Z,21.10
2017-06-28T08:34:46.509Z,21.10
2017-06-28T08:37:13.998Z,21.00
2017-06-28T08:39:41.664Z,21.30
2017-06-28T08:42:09.132Z,21.40
2017-06-28T08:44:36.997Z,21.40
2017-06-28T08:47:04.968Z,21.60
2017-06-28T08:49:33.080Z,21.30
2017-06-28T08:52:00.542Z,21.30
2017-06-28T08:54:28.037Z,21.20
2017-06-28T08:56:55.508Z,21.00
2017-06-28T08:59:23.371Z,21.40
2017-06-28T09:01:50.885Z,21.40
2017-06-28T09:04:18.360Z,21.50
2017-06-28T09:06:45.966Z,21.40
2017-06-28T09:09:13.466Z,21.40
2017-06-28T09:11:41.074Z,21.40
2017-06-28T09:14:08.569Z,21.30
2017-06-28T09:16:36.154Z,21.30
2017-06-28T09:19:03.632Z,21.40
2017-06-28T09:21:31.488Z,21.40
2017-06-28T09:23:59.008Z,21.40
2017-06-28T09:26:26.472Z,21.60
2017-06-28T09:28:54.506Z,21.70
2017-06-28T09:31:22.033Z,22.00
2017-06-28T09:33:49.492Z,22.30
2017-06-28T09:36:16.976Z,22.40
2017-06-28T09:38:44.633Z,22.20
2017-06-28T09:41:12.117Z,22.10
2017-06-28T09:43:39.580Z,22.20
2017-06-28T09:46:07.357Z,22.40
2017-06-28T09:48:34.821Z,22.60
2017-06-28T09:51:02.301Z,22.90
2017-06-28T09:53:29.789Z,23.20
2017-06-28T09:55:57.252Z,23.10
2017-06-28T09:58:24.713Z,23.20
2017-06-28T10:00:52.189Z,23.10
2017-06-28T10:03:19.655Z,22.90
2017-06-28T10:05:47.521Z,22.50
2017-06-28T10:08:15.172Z,22.50
2017-06-28T10:10:43.033Z,21.90
2017-06-28T10:13:10.512Z,21.90
2017-06-28T10:15:38.257Z,22.20
2017-06-28T10:18:05.717Z,22.20
2017-06-28T10:20:33.181Z,22.20
2017-06-28T10:23:00.877Z,22.20
2017-06-28T10:25:28.364Z,22.10
2017-06-28T10:27:55.839Z,22.40
2017-06-28T10:30:23.324Z,22.30
2017-06-28T10:32:50.798Z,22.30
2017-06-28T10:35:18.264Z,22.50
2017-06-28T10:37:46.071Z,22.60
2017-06-28T10:40:14.409Z,22.40
2017-06-28T10:42:41.893Z,22.60
2017-06-28T10:45:09.396Z,23.00
2017-06-28T10:47:36.865Z,22.90
2017-06-28T10:50:04.327Z,22.80
2017-06-28T10:52:31.829Z,22.80
2017-06-28T10:54:59.326Z,22.80
2017-06-28T10:57:26.794Z,22.90
2017-06-28T10:59:54.590Z,23.00
2017-06-28T11:02:22.059Z,22.80
2017-06-28T11:04:49.925Z,23.20
2017-06-28T11:07:17.778Z,23.20
2017-06-28T11:09:45.651Z,23.20
2017-06-28T11:12:13.510Z,23.30
2017-06-28T11:14:41.486Z,23.30
2017-06-28T11:17:09.345Z,23.70
2017-06-28T11:19:37.200Z,23.90
2017-06-28T11:22:05.099Z,23.70
2017-06-28T11:24:32.573Z,23.70
2017-06-28T11:27:00.042Z,24.00
2017-06-28T11:29:27.541Z,24.50
2017-06-28T11:31:55.033Z,24.40
2017-06-28T11:34:22.506Z,24.50
2017-06-28T11:36:50.213Z,24.70
2017-06-28T11:39:17.676Z,24.80
2017-06-28T11:41:45.136Z,24.30
2017-06-28T11:44:13.117Z,24.30
2017-06-28T11:46:40.584Z,24.30
2017-06-28T11:49:08.048Z,24.60
2017-06-28T11:51:35.613Z,24.20
2017-06-28T11:54:03.081Z,24.60
2017-06-28T11:56:30.559Z,24.80
2017-06-28T11:58:58.059Z,24.80
2017-06-28T12:01:25.519Z,24.90
2017-06-28T12:03:52.982Z,24.80
2017-06-28T12:06:20.502Z,24.60
2017-06-28T12:08:47.965Z,24.50
2017-06-28T12:11:15.647Z,24.60
2017-06-28T12:13:43.467Z,24.40
2017-06-28T12:16:10.934Z,24.40
2017-06-28T12:18:39.205Z,24.40
2017-06-28T12:21:06.725Z,25.20
2017-06-28T12:23:34.203Z,25.50
2017-06-28T12:26:01.665Z,25.90
2017-06-28T12:28:29.737Z,25.70
2017-06-28T12:30:57.201Z,25.70
2017-06-28T12:33:25.058Z,25.40
2017-06-28T12:35:52.961Z,25.50
2017-06-28T12:38:20.434Z,25.50
2017-06-28T12:40:47.892Z,25.50
2017-06-28T12:43:15.690Z,25.70
2017-06-28T12:45:43.560Z,25.80
2017-06-28T12:48:11.420Z,25.60
2017-06-28T12:50:38.922Z,25.60
2017-06-28T12:53:06.409Z,25.50
2017-06-28T12:55:33.870Z,25.60
2017-06-28T12:58:01.550Z,26.10
2017-06-28T13:00:29.057Z,26.90
2017-06-28T13:02:56.516Z,27.10
2017-06-28T13:05:24.011Z,27.20
2017-06-28T13:07:51.477Z,27.30
2017-06-28T13:10:19.337Z,26.80
2017-06-28T13:12:46.832Z,26.80
2017-06-28T13:15:14.317Z,26.50
2017-06-28T13:17:41.778Z,26.00
2017-06-28T13:20:09.560Z,26.50
2017-06-28T13:22:37.041Z,25.60
2017-06-28T13:25:04.902Z,25.20
2017-06-28T13:27:32.426Z,25.20
2017-06-28T13:29:59.890Z,25.10
2017-06-28T13:32:27.369Z,25.10
2017-06-28T13:34:55.342Z,25.10
2017-06-28T13:37:22.824Z,25.20
2017-06-28T13:39:50.292Z,24.90
2017-06-28T13:42:17.786Z,24.60
2017-06-28T13:44:45.658Z,24.70
2017-06-28T13:47:13.537Z,24.90
2017-06-28T13:49:41.030Z,24.90
2017-06-28T13:52:08.501Z,24.80
2017-06-28T13:54:35.972Z,24.80
2017-06-28T13:57:03.492Z,24.70
2017-06-28T13:59:30.953Z,25.00
2017-06-28T14:01:58.433Z,25.00
2017-06-28T14:04:26.041Z,24.70
2017-06-28T14:06:53.493Z,24.70
2017-06-28T14:09:20.993Z,24.50
2017-06-28T14:11:48.481Z,24.30
2017-06-28T14:14:15.966Z,24.10
2017-06-28T14:16:43.437Z,23.80
2017-06-28T14:19:11.144Z,23.80
2017-06-28T14:21:39.020Z,23.70
2017-06-28T14:24:06.877Z,23.70
2017-06-28T14:26:34.369Z,23.70
2017-06-28T14:29:01.836Z,23.70
2017-06-28T14:31:29.296Z,23.70
2017-06-28T14:33:56.797Z,23.60
2017-06-28T14:36:24.264Z,23.50
2017-06-28T14:38:52.133Z,23.60
2017-06-28T14:41:20.031Z,23.50
2017-06-28T14:43:48.408Z,23.50
2017-06-28T14:46:15.869Z,23.40
2017-06-28T14:48:43.358Z,23.40
2017-06-28T14:51:10.837Z,23.40
2017-06-28T14:53:38.712Z,23.20
2017-06-28T14:56:06.228Z,23.20
2017-06-28T14:58:33.694Z,23.10
2017-06-28T15:01:01.161Z,23.00
2017-06-28T15:03:28.671Z,22.90
2017-06-28T15:05:56.152Z,22.80
2017-06-28T15:08:23.656Z,22.60
2017-06-28T15:10:51.526Z,22.50
2017-06-28T15:13:19.004Z,22.30
2017-06-28T15:15:46.489Z,22.30
2017-06-28T15:18:14.205Z,22.20
2017-06-28T15:20:41.775Z,22.10
2017-06-28T15:23:09.244Z,21.90
2017-06-28T15:25:36.922Z,21.70
2017-06-28T15:28:04.633Z,21.60
2017-06-28T15:30:32.097Z,21.60
2017-06-28T15:32:59.592Z,21.60
2017-06-28T15:35:27.072Z,21.50
2017-06-28T15:37:54.622Z,21.40
2017-06-28T15:40:22.694Z,21.30
2017-06-28T15:42:50.158Z,21.30
2017-06-28T15:45:18.169Z,21.20
2017-06-28T15:47:46.685Z,21.20
2017-06-28T15:50:14.166Z,21.20
2017-06-28T15:52:42.070Z,21.20
2017-06-28T15:55:09.629Z,21.30
2017-06-28T15:57:37.133Z,21.20
2017-06-28T16:00:05.025Z,21.30
2017-06-28T16:02:32.579Z,21.30
2017-06-28T16:05:00.471Z,21.40
2017-06-28T16:07:27.954Z,21.40
2017-06-28T16:09:55.501Z,21.30
2017-06-28T16:12:22.976Z,21.30
2017-06-28T16:14:50.452Z,21.40
2017-06-28T16:17:17.975Z,21.50
2017-06-28T16:19:45.457Z,21.40
2017-06-28T16:22:13.336Z,21.30
2017-06-28T16:24:41.204Z,21.30
2017-06-28T16:27:09.088Z,21.30
2017-06-28T16:29:36.553Z,21.30
2017-06-28T16:32:04.031Z,21.20
2017-06-28T16:34:31.731Z,21.20
2017-06-28T16:36:59.205Z,21.20
2017-06-28T16:39:27.920Z,21.10
2017-06-28T16:41:55.729Z,21.20
2017-06-28T16:44:23.194Z,21.20
2017-06-28T16:46:50.679Z,21.20
2017-06-28T16:49:18.182Z,21.20
2017-06-28T16:51:45.668Z,21.30
2017-06-28T16:54:13.540Z,21.10
2017-06-28T16:56:41.064Z,21.10
2017-06-28T16:59:08.534Z,21.20
2017-06-28T17:01:36.418Z,21.40
2017-06-28T17:04:04.257Z,21.40
2017-06-28T17:06:32.132Z,21.30
2017-06-28T17:08:59.625Z,21.40
2017-06-28T17:11:27.137Z,21.30
2017-06-28T17:13:55.027Z,21.10
2017-06-28T17:16:22.524Z,21.10
2017-06-28T17:18:50.233Z,21.00
2017-06-28T17:21:17.718Z,21.00
2017-06-28T17:23:45.203Z,20.90
2017-06-28T17:26:12.702Z,20.90
2017-06-28T17:28:40.594Z,20.80
2017-06-28T17:33:41.954Z,20.80
2017-06-28T17:36:09.489Z,20.90
2017-06-28T17:38:37.340Z,20.80
2017-06-28T17:41:05.389Z,20.80
2017-06-28T17:43:32.857Z,20.80
2017-06-28T17:46:00.332Z,20.60
2017-06-28T17:48:27.876Z,20.70
2017-06-28T17:50:55.337Z,20.60
2017-06-28T17:53:22.822Z,20.60
2017-06-28T17:55:50.402Z,20.60
2017-06-28T17:58:17.900Z,20.60
2017-06-28T18:00:45.369Z,20.70
2017-06-28T18:03:13.456Z,20.80
2017-06-28T18:05:40.937Z,20.80
2017-06-28T18:08:08.406Z,20.70
2017-06-28T18:10:35.974Z,20.80
2017-06-28T18:13:03.446Z,20.80
2017-06-28T18:15:30.913Z,20.80
2017-06-28T18:17:58.821Z,20.90
2017-06-28T18:20:26.313Z,20.90
2017-06-28T18:22:53.795Z,20.80
2017-06-28T18:25:21.789Z,20.90
2017-06-28T18:27:49.262Z,20.80
2017-06-28T18:30:16.739Z,20.60
2017-06-28T18:32:44.256Z,20.60
2017-06-28T18:35:11.747Z,20.60
2017-06-28T18:37:39.255Z,20.90
2017-06-28T18:40:07.098Z,21.00
2017-06-28T18:42:34.590Z,21.10
2017-06-28T18:45:02.071Z,21.00
2017-06-28T18:47:29.771Z,21.00
2017-06-28T18:49:57.277Z,21.00
2017-06-28T18:52:24.792Z,20.90
2017-06-28T18:54:52.695Z,20.80
2017-06-28T18:57:20.193Z,20.90
2017-06-28T18:59:47.674Z,20.80
2017-06-28T19:02:16.748Z,20.90
2017-06-28T19:04:44.241Z,20.90
2017-06-28T19:07:11.754Z,20.80
2017-06-28T19:09:39.543Z,20.70
2017-06-28T19:12:07.030Z,20.70
2017-06-28T19:14:34.579Z,20.60
2017-06-28T19:17:02.072Z,20.60
2017-06-28T19:19:29.555Z,20.40
2017-06-28T19:21:57.049Z,20.40
2017-06-28T19:24:24.574Z,20.50
2017-06-28T19:26:52.436Z,20.50
2017-06-28T19:29:20.309Z,20.50
2017-06-28T19:31:47.830Z,20.50
2017-06-28T19:34:15.345Z,20.50
2017-06-28T19:36:42.842Z,20.50
2017-06-28T19:39:10.378Z,20.40
2017-06-28T19:41:39.834Z,20.30
2017-06-28T19:44:07.305Z,20.40
2017-06-28T19:46:34.808Z,20.20
2017-06-28T19:49:02.284Z,20.10
2017-06-28T19:51:29.759Z,20.20
2017-06-28T19:53:57.918Z,20.10
2017-06-28T19:56:25.384Z,20.10
2017-06-28T19:58:53.253Z,20.10
2017-06-28T20:01:21.005Z,20.10
2017-06-28T20:03:49.005Z,20.20
2017-06-28T20:06:16.482Z,20.30
2017-06-28T20:08:44.079Z,20.20
2017-06-28T20:11:11.561Z,20.20
2017-06-28T20:13:39.065Z,20.20
2017-06-28T20:16:06.574Z,20.20
2017-06-28T20:18:34.375Z,20.30
2017-06-28T20:21:01.842Z,20.20
2017-06-28T20:23:29.736Z,20.20
2017-06-28T20:25:57.206Z,20.20
2017-06-28T20:28:24.693Z,20.30
2017-06-28T20:30:52.180Z,20.20
2017-06-28T20:33:19.687Z,20.20
2017-06-28T20:35:47.158Z,20.20
2017-06-28T20:38:14.653Z,20.10
2017-06-28T20:40:42.383Z,20.10
2017-06-28T20:43:09.864Z,20.10
2017-06-28T20:45:37.388Z,20.10
2017-06-28T20:48:04.852Z,20.10
2017-06-28T20:50:32.333Z,20.10
2017-06-28T20:53:00.014Z,20.10
2017-06-28T20:55:27.489Z,20.10
2017-06-28T20:57:54.973Z,20.10
2017-06-28T21:00:23.274Z,20.10
2017-06-28T21:02:50.744Z,20.10
2017-06-28T21:05:18.280Z,20.10
2017-06-28T21:07:46.088Z,20.10
2017-06-28T21:10:13.578Z,20.10
2017-06-28T21:12:41.065Z,20.10
2017-06-28T21:15:08.575Z,20.10
2017-06-28T21:17:36.075Z,20.10
2017-06-28T21:20:03.559Z,20.00
2017-06-28T21:22:31.457Z,19.80
2017-06-28T21:24:58.962Z,19.80
2017-06-28T21:27:26.452Z,19.80
2017-06-28T21:29:53.957Z,19.70
2017-06-28T21:32:21.444Z,19.80
2017-06-28T21:34:48.961Z,19.70
2017-06-28T21:37:16.731Z,19.70
2017-06-28T21:39:44.256Z,19.80
2017-06-28T21:42:11.744Z,19.70
2017-06-28T21:44:39.577Z,19.80
2017-06-28T21:47:07.496Z,19.80
2017-06-28T21:49:34.969Z,19.80
2017-06-28T21:52:02.863Z,19.80
2017-06-28T21:54:30.384Z,19.80
2017-06-28T21:56:57.937Z,19.90
2017-06-28T21:59:25.466Z,19.90
2017-06-28T22:01:52.955Z,19.90
2017-06-28T22:04:21.241Z,19.80
2017-06-28T22:06:48.813Z,19.70
2017-06-28T22:09:16.646Z,19.80
2017-06-28T22:11:44.115Z,19.90
2017-06-28T22:14:18.476Z,19.80
2017-06-28T22:16:45.940Z,19.80
2017-06-28T22:19:39.046Z,19.80
2017-06-28T22:22:06.534Z,19.80
2017-06-28T22:24:34.007Z,19.80
2017-06-28T22:27:02.287Z,19.80
2017-06-28T22:29:29.757Z,19.80
2017-06-28T22:31:57.228Z,19.80
2017-06-28T22:34:26.055Z,19.70
2017-06-28T22:36:53.525Z,19.70
2017-06-28T22:39:20.997Z,19.60
2017-06-28T22:41:48.618Z,19.60
2017-06-28T22:44:16.089Z,19.60
2017-06-28T22:46:43.573Z,19.50
2017-06-28T22:49:11.087Z,19.50
2017-06-28T22:51:38.562Z,19.50
2017-06-28T22:54:06.029Z,19.50
2017-06-28T22:56:33.716Z,19.50
2017-06-28T22:59:01.583Z,19.40
2017-06-28T23:01:29.461Z,19.40
2017-06-28T23:03:57.735Z,19.40
2017-06-28T23:06:25.231Z,19.40
2017-06-28T23:08:52.716Z,19.40
2017-06-28T23:11:20.501Z,19.40
2017-06-28T23:13:48.376Z,19.30
2017-06-28T23:16:15.852Z,19.30
2017-06-28T23:18:43.440Z,19.30
2017-06-28T23:21:10.912Z,19.20
2017-06-28T23:23:38.389Z,19.20
2017-06-28T23:26:05.895Z,19.10
2017-06-28T23:28:33.377Z,19.00
2017-06-28T23:31:00.865Z,18.90
2017-06-28T23:33:28.716Z,18.90
2017-06-28T23:35:56.195Z,18.80
2017-06-28T23:38:23.704Z,18.70
2017-06-28T23:40:51.212Z,18.70
2017-06-28T23:43:18.696Z,18.70
2017-06-28T23:45:46.167Z,18.70
2017-06-28T23:48:13.699Z,18.70
2017-06-28T23:50:41.169Z,18.60
2017-06-28T23:53:08.653Z,18.60
2017-06-28T23:55:36.319Z,18.60
2017-06-28T23:58:04.215Z,18.70
